sensor_id;sensor_type;location;lat;lon;timestamp;pressure;altitude;pressure_sealevel;temperature;humidity
42111;BME280;27766;52.174;5.456;2023-06-10T00:02:12;101446.66;;;21.35;63.74
42111;BME280;27766;52.174;5.456;2023-06-10T00:04:39;101443.25;;;21.30;64.39
42111;BME280;27766;52.174;5.456;2023-06-10T00:07:06;101442.38;;;21.29;63.08
42111;BME280;27766;52.174;5.456;2023-06-10T00:09:37;101454.69;;;21.27;63.21
42111;BME280;27766;52.174;5.456;2023-06-10T00:12:05;101447.69;;;21.26;62.85
42111;BME280;27766;52.174;5.456;2023-06-10T00:14:35;101453.03;;;21.22;62.09
42111;BME280;27766;52.174;5.456;2023-06-10T00:17:02;101448.72;;;21.16;62.68
42111;BME280;27766;52.174;5.456;2023-06-10T00:19:29;101457.56;;;21.15;61.70
42111;BME280;27766;52.174;5.456;2023-06-10T00:22:00;101450.53;;;21.12;62.90
42111;BME280;27766;52.174;5.456;2023-06-10T00:24:27;101453.25;;;21.09;62.33
42111;BME280;27766;52.174;5.456;2023-06-10T00:26:54;101456.84;;;21.03;62.17
42111;BME280;27766;52.174;5.456;2023-06-10T00:29:22;101460.41;;;21.01;62.47
42111;BME280;27766;52.174;5.456;2023-06-10T00:31:49;101451.69;;;20.97;62.35
42111;BME280;27766;52.174;5.456;2023-06-10T00:34:16;101456.94;;;20.96;63.45
42111;BME280;27766;52.174;5.456;2023-06-10T00:36:43;101463.13;;;20.93;61.63
42111;BME280;27766;52.174;5.456;2023-06-10T00:39:11;101456.22;;;20.87;61.93
42111;BME280;27766;52.174;5.456;2023-06-10T00:41:38;101454.47;;;20.86;61.26
42111;BME280;27766;52.174;5.456;2023-06-10T00:44:06;101463.28;;;20.82;60.62
42111;BME280;27766;52.174;5.456;2023-06-10T00:46:36;101461.59;;;20.77;60.88
42111;BME280;27766;52.174;5.456;2023-06-10T00:49:05;101469.50;;;20.78;60.84
42111;BME280;27766;52.174;5.456;2023-06-10T00:51:32;101462.53;;;20.74;59.58
42111;BME280;27766;52.174;5.456;2023-06-10T00:54:00;101458.22;;;20.67;59.62
42111;BME280;27766;52.174;5.456;2023-06-10T00:56:27;101463.44;;;20.70;59.13
42111;BME280;27766;52.174;5.456;2023-06-10T01:01:22;101452.16;;;20.62;58.82
42111;BME280;27766;52.174;5.456;2023-06-10T01:03:49;101460.94;;;20.61;59.19
42111;BME280;27766;52.174;5.456;2023-06-10T01:09:25;101464.53;;;20.55;58.25
42111;BME280;27766;52.174;5.456;2023-06-10T01:12:10;101472.41;;;20.56;59.19
42111;BME280;27766;52.174;5.456;2023-06-10T01:14:39;101463.69;;;20.51;59.25
42111;BME280;27766;52.174;5.456;2023-06-10T01:17:12;101468.13;;;20.49;59.18
42111;BME280;27766;52.174;5.456;2023-06-10T01:19:39;101467.25;;;20.47;59.34
42111;BME280;27766;52.174;5.456;2023-06-10T01:22:08;101469.09;;;20.42;59.74
42111;BME280;27766;52.174;5.456;2023-06-10T01:24:37;101473.41;;;20.46;60.52
42111;BME280;27766;52.174;5.456;2023-06-10T01:27:12;101470.81;;;20.43;60.46
42111;BME280;27766;52.174;5.456;2023-06-10T01:29:46;101475.19;;;20.46;60.78
42111;BME280;27766;52.174;5.456;2023-06-10T01:32:48;101476.06;;;20.45;61.19
42111;BME280;27766;52.174;5.456;2023-06-10T01:35:17;101479.59;;;20.44;61.70
42111;BME280;27766;52.174;5.456;2023-06-10T01:37:47;101475.22;;;20.43;62.22
42111;BME280;27766;52.174;5.456;2023-06-10T01:40:16;101483.13;;;20.41;62.57
42111;BME280;27766;52.174;5.456;2023-06-10T01:42:43;101476.16;;;20.37;63.47
42111;BME280;27766;52.174;5.456;2023-06-10T01:45:11;101473.59;;;20.34;64.80
42111;BME280;27766;52.174;5.456;2023-06-10T01:47:39;101482.34;;;20.33;65.81
42111;BME280;27766;52.174;5.456;2023-06-10T01:50:06;101476.25;;;20.31;67.00
42111;BME280;27766;52.174;5.456;2023-06-10T01:52:34;101478.00;;;20.29;67.30
42111;BME280;27766;52.174;5.456;2023-06-10T01:55:01;101471.00;;;20.28;67.91
42111;BME280;27766;52.174;5.456;2023-06-10T01:57:28;101467.56;;;20.26;69.28
42111;BME280;27766;52.174;5.456;2023-06-10T01:59:55;101478.06;;;20.24;68.98
42111;BME280;27766;52.174;5.456;2023-06-10T02:02:22;101476.41;;;20.18;70.68
42111;BME280;27766;52.174;5.456;2023-06-10T02:04:49;101480.84;;;20.12;70.80
42111;BME280;27766;52.174;5.456;2023-06-10T02:07:17;101471.28;;;20.06;72.47
42111;BME280;27766;52.174;5.456;2023-06-10T02:09:45;101480.94;;;20.02;74.93
42111;BME280;27766;52.174;5.456;2023-06-10T02:12:12;101477.53;;;19.96;75.57
42111;BME280;27766;52.174;5.456;2023-06-10T02:14:43;101480.19;;;19.89;75.36
42111;BME280;27766;52.174;5.456;2023-06-10T02:17:10;101481.16;;;19.81;77.67
42111;BME280;27766;52.174;5.456;2023-06-10T02:19:39;101481.22;;;19.74;79.18
42111;BME280;27766;52.174;5.456;2023-06-10T02:22:09;101478.63;;;19.70;79.97
42111;BME280;27766;52.174;5.456;2023-06-10T02:24:37;101482.13;;;19.69;81.00
42111;BME280;27766;52.174;5.456;2023-06-10T02:27:05;101496.16;;;19.69;82.82
42111;BME280;27766;52.174;5.456;2023-06-10T02:29:34;101490.91;;;19.68;82.94
42111;BME280;27766;52.174;5.456;2023-06-10T02:32:02;101489.19;;;19.65;83.08
42111;BME280;27766;52.174;5.456;2023-06-10T02:34:30;101490.97;;;19.61;83.95
42111;BME280;27766;52.174;5.456;2023-06-10T02:36:58;101482.31;;;19.52;84.50
42111;BME280;27766;52.174;5.456;2023-06-10T02:39:25;101479.66;;;19.50;86.20
42111;BME280;27766;52.174;5.456;2023-06-10T02:41:52;101487.53;;;19.50;86.36
42111;BME280;27766;52.174;5.456;2023-06-10T02:44:19;101493.69;;;19.51;87.76
42111;BME280;27766;52.174;5.456;2023-06-10T02:46:47;101483.22;;;19.46;88.47
42111;BME280;27766;52.174;5.456;2023-06-10T02:49:14;101491.97;;;19.45;89.11
42111;BME280;27766;52.174;5.456;2023-06-10T02:51:41;101487.66;;;19.38;90.42
42111;BME280;27766;52.174;5.456;2023-06-10T02:54:09;101489.41;;;19.36;91.60
42111;BME280;27766;52.174;5.456;2023-06-10T02:56:37;101489.47;;;19.31;93.05
42111;BME280;27766;52.174;5.456;2023-06-10T02:59:08;101476.41;;;19.25;92.92
42111;BME280;27766;52.174;5.456;2023-06-10T03:01:36;101486.00;;;19.29;93.45
42111;BME280;27766;52.174;5.456;2023-06-10T03:04:05;101488.66;;;19.24;94.02
42111;BME280;27766;52.174;5.456;2023-06-10T03:06:32;101486.06;;;19.20;95.10
42111;BME280;27766;52.174;5.456;2023-06-10T03:09:03;101492.16;;;19.23;95.21
42111;BME280;27766;52.174;5.456;2023-06-10T03:11:31;101493.09;;;19.19;96.78
42111;BME280;27766;52.174;5.456;2023-06-10T03:13:58;101487.84;;;19.16;97.80
42111;BME280;27766;52.174;5.456;2023-06-10T03:16:25;101495.72;;;19.13;97.74
42111;BME280;27766;52.174;5.456;2023-06-10T03:18:54;101490.50;;;19.10;98.20
42111;BME280;27766;52.174;5.456;2023-06-10T03:21:22;101500.16;;;19.05;99.63
42111;BME280;27766;52.174;5.456;2023-06-10T03:23:49;101499.28;;;19.04;100.00
42111;BME280;27766;52.174;5.456;2023-06-10T03:26:16;101497.53;;;19.03;100.00
42111;BME280;27766;52.174;5.456;2023-06-10T03:28:43;101495.81;;;19.01;100.00
42111;BME280;27766;52.174;5.456;2023-06-10T03:31:10;101494.94;;;18.98;100.00
42111;BME280;27766;52.174;5.456;2023-06-10T03:33:43;101507.22;;;18.96;100.00
42111;BME280;27766;52.174;5.456;2023-06-10T03:36:11;101501.09;;;18.94;100.00
42111;BME280;27766;52.174;5.456;2023-06-10T03:38:39;101501.09;;;18.91;100.00
42111;BME280;27766;52.174;5.456;2023-06-10T03:41:06;101499.38;;;18.92;100.00
42111;BME280;27766;52.174;5.456;2023-06-10T03:43:33;101504.63;;;18.92;100.00
42111;BME280;27766;52.174;5.456;2023-06-10T03:46:00;101503.72;;;18.91;100.00
42111;BME280;27766;52.174;5.456;2023-06-10T03:48:28;101502.88;;;18.86;100.00
42111;BME280;27766;52.174;5.456;2023-06-10T03:50:55;101516.00;;;18.86;100.00
42111;BME280;27766;52.174;5.456;2023-06-10T03:53:22;101519.47;;;18.87;100.00
42111;BME280;27766;52.174;5.456;2023-06-10T03:55:49;101509.88;;;18.82;100.00
42111;BME280;27766;52.174;5.456;2023-06-10T03:58:16;101516.88;;;18.83;100.00
42111;BME280;27766;52.174;5.456;2023-06-10T04:00:45;101514.28;;;18.79;100.00
42111;BME280;27766;52.174;5.456;2023-06-10T04:03:13;101515.13;;;18.79;100.00
42111;BME280;27766;52.174;5.456;2023-06-10T04:05:42;101515.16;;;18.78;100.00
42111;BME280;27766;52.174;5.456;2023-06-10T04:08:09;101506.47;;;18.68;100.00
42111;BME280;27766;52.174;5.456;2023-06-10T04:10:37;101516.94;;;18.73;100.00
42111;BME280;27766;52.174;5.456;2023-06-10T04:13:05;101519.53;;;18.71;100.00
42111;BME280;27766;52.174;5.456;2023-06-10T04:15:32;101523.03;;;18.73;100.00
42111;BME280;27766;52.174;5.456;2023-06-10T04:18:00;101528.25;;;18.75;100.00
42111;BME280;27766;52.174;5.456;2023-06-10T04:20:28;101530.06;;;18.73;100.00
42111;BME280;27766;52.174;5.456;2023-06-10T04:22:55;101531.78;;;18.72;100.00
42111;BME280;27766;52.174;5.456;2023-06-10T04:25:22;101529.16;;;18.72;100.00
42111;BME280;27766;52.174;5.456;2023-06-10T04:27:50;101529.13;;;18.74;100.00
42111;BME280;27766;52.174;5.456;2023-06-10T04:30:17;101530.91;;;18.76;100.00
42111;BME280;27766;52.174;5.456;2023-06-10T04:32:45;101531.78;;;18.75;100.00
42111;BME280;27766;52.174;5.456;2023-06-10T04:35:15;101535.25;;;18.76;100.00
42111;BME280;27766;52.174;5.456;2023-06-10T04:37:42;101535.25;;;18.76;100.00
42111;BME280;27766;52.174;5.456;2023-06-10T04:40:09;101530.91;;;18.70;100.00
42111;BME280;27766;52.174;5.456;2023-06-10T04:42:37;101535.25;;;18.83;100.00
42111;BME280;27766;52.174;5.456;2023-06-10T04:45:05;101533.47;;;18.84;100.00
42111;BME280;27766;52.174;5.456;2023-06-10T04:47:33;101530.00;;;18.79;100.00
42111;BME280;27766;52.174;5.456;2023-06-10T04:50:02;101531.72;;;18.83;100.00
42111;BME280;27766;52.174;5.456;2023-06-10T04:52:29;101540.44;;;18.91;100.00
42111;BME280;27766;52.174;5.456;2023-06-10T04:54:59;101538.69;;;18.95;100.00
42111;BME280;27766;52.174;5.456;2023-06-10T04:57:26;101537.78;;;18.97;100.00
42111;BME280;27766;52.174;5.456;2023-06-10T04:59:53;101543.06;;;18.99;100.00
42111;BME280;27766;52.174;5.456;2023-06-10T05:02:21;101547.38;;;19.06;100.00
42111;BME280;27766;52.174;5.456;2023-06-10T05:04:48;101540.34;;;19.08;100.00
42111;BME280;27766;52.174;5.456;2023-06-10T05:07:15;101547.34;;;19.11;100.00
42111;BME280;27766;52.174;5.456;2023-06-10T05:09:42;101515.06;;;19.03;100.00
42111;BME280;27766;52.174;5.456;2023-06-10T05:12:10;101539.44;;;19.17;100.00
42111;BME280;27766;52.174;5.456;2023-06-10T05:14:37;101542.88;;;19.22;100.00
42111;BME280;27766;52.174;5.456;2023-06-10T05:17:05;101538.50;;;19.24;100.00
42111;BME280;27766;52.174;5.456;2023-06-10T05:19:35;101552.44;;;19.33;100.00
42111;BME280;27766;52.174;5.456;2023-06-10T05:22:03;101547.19;;;19.33;100.00
42111;BME280;27766;52.174;5.456;2023-06-10T05:24:30;101547.16;;;19.39;100.00
42111;BME280;27766;52.174;5.456;2023-06-10T05:26:58;101544.47;;;19.45;100.00
42111;BME280;27766;52.174;5.456;2023-06-10T05:29:25;101540.06;;;19.52;100.00
42111;BME280;27766;52.174;5.456;2023-06-10T05:31:52;101543.47;;;19.61;100.00
42111;BME280;27766;52.174;5.456;2023-06-10T05:34:20;101548.66;;;19.71;100.00
42111;BME280;27766;52.174;5.456;2023-06-10T05:36:47;101549.50;;;19.73;100.00
42111;BME280;27766;52.174;5.456;2023-06-10T05:39:15;101554.72;;;19.79;100.00
42111;BME280;27766;52.174;5.456;2023-06-10T05:41:42;101538.91;;;19.85;100.00
42111;BME280;27766;52.174;5.456;2023-06-10T05:44:09;101546.72;;;19.91;100.00
42111;BME280;27766;52.174;5.456;2023-06-10T05:46:40;101550.19;;;19.97;100.00
42111;BME280;27766;52.174;5.456;2023-06-10T05:49:07;101539.72;;;19.93;100.00
42111;BME280;27766;52.174;5.456;2023-06-10T05:51:35;101548.41;;;19.99;100.00
42111;BME280;27766;52.174;5.456;2023-06-10T05:54:04;101560.53;;;20.12;100.00
42111;BME280;27766;52.174;5.456;2023-06-10T05:56:31;101559.59;;;20.18;100.00
42111;BME280;27766;52.174;5.456;2023-06-10T05:58:59;101555.09;;;20.31;100.00
42111;BME280;27766;52.174;5.456;2023-06-10T06:01:26;101548.84;;;20.39;100.00
42111;BME280;27766;52.174;5.456;2023-06-10T06:03:53;101553.16;;;20.48;100.00
42111;BME280;27766;52.174;5.456;2023-06-10T06:06:21;101540.91;;;20.46;100.00
42111;BME280;27766;52.174;5.456;2023-06-10T06:08:48;101546.03;;;20.56;100.00
42111;BME280;27766;52.174;5.456;2023-06-10T06:11:15;101545.94;;;20.63;100.00
42111;BME280;27766;52.174;5.456;2023-06-10T06:13:42;101552.84;;;20.73;100.00
42111;BME280;27766;52.174;5.456;2023-06-10T06:16:10;101552.72;;;20.82;100.00
42111;BME280;27766;52.174;5.456;2023-06-10T06:18:37;101542.19;;;20.85;100.00
42111;BME280;27766;52.174;5.456;2023-06-10T06:21:04;101556.09;;;20.94;98.00
42111;BME280;27766;52.174;5.456;2023-06-10T06:23:31;101555.91;;;21.06;99.62
42111;BME280;27766;52.174;5.456;2023-06-10T06:25:58;101550.53;;;21.15;100.00
42111;BME280;27766;52.174;5.456;2023-06-10T06:28:25;101546.91;;;21.23;94.61
42111;BME280;27766;52.174;5.456;2023-06-10T06:30:56;101550.97;;;21.42;91.02
42111;BME280;27766;52.174;5.456;2023-06-10T06:33:24;101549.19;;;21.44;91.51
42111;BME280;27766;52.174;5.456;2023-06-10T06:35:53;101552.50;;;21.60;88.88
42111;BME280;27766;52.174;5.456;2023-06-10T06:38:20;101548.66;;;21.77;87.40
42111;BME280;27766;52.174;5.456;2023-06-10T06:40:47;101544.88;;;21.93;90.39
42111;BME280;27766;52.174;5.456;2023-06-10T06:43:14;101548.13;;;22.08;81.84
42111;BME280;27766;52.174;5.456;2023-06-10T06:45:42;101549.44;;;22.30;80.58
42111;BME280;27766;52.174;5.456;2023-06-10T06:48:09;101550.97;;;22.44;78.94
42111;BME280;27766;52.174;5.456;2023-06-10T06:50:37;101556.00;;;22.56;75.95
42111;BME280;27766;52.174;5.456;2023-06-10T06:53:05;101558.41;;;22.67;74.98
42111;BME280;27766;52.174;5.456;2023-06-10T06:55:32;101553.88;;;22.74;72.09
42111;BME280;27766;52.174;5.456;2023-06-10T06:57:59;101558.06;;;22.83;71.44
42111;BME280;27766;52.174;5.456;2023-06-10T07:00:30;101551.84;;;22.85;68.57
42111;BME280;27766;52.174;5.456;2023-06-10T07:02:58;101550.66;;;23.00;69.36
42111;BME280;27766;52.174;5.456;2023-06-10T07:05:25;101558.38;;;23.10;68.26
42111;BME280;27766;52.174;5.456;2023-06-10T07:07:55;101547.53;;;23.22;69.02
42111;BME280;27766;52.174;5.456;2023-06-10T07:10:24;101552.66;;;23.28;68.51
42111;BME280;27766;52.174;5.456;2023-06-10T07:12:52;101552.44;;;23.37;66.43
42111;BME280;27766;52.174;5.456;2023-06-10T07:15:19;101563.59;;;23.50;62.21
42111;BME280;27766;52.174;5.456;2023-06-10T07:17:46;101560.97;;;23.49;62.35
42111;BME280;27766;52.174;5.456;2023-06-10T07:20:14;101557.13;;;23.62;65.59
42111;BME280;27766;52.174;5.456;2023-06-10T07:22:42;101558.72;;;23.69;63.69
42111;BME280;27766;52.174;5.456;2023-06-10T07:25:09;101556.47;;;23.87;66.21
42111;BME280;27766;52.174;5.456;2023-06-10T07:27:37;101551.06;;;23.92;63.50
42111;BME280;27766;52.174;5.456;2023-06-10T07:30:05;101549.06;;;24.03;61.55
42111;BME280;27766;52.174;5.456;2023-06-10T07:32:35;101561.06;;;24.15;63.91
42111;BME280;27766;52.174;5.456;2023-06-10T07:35:02;101563.47;;;24.24;60.85
42111;BME280;27766;52.174;5.456;2023-06-10T07:37:29;101560.34;;;24.41;62.04
42111;BME280;27766;52.174;5.456;2023-06-10T07:39:56;101564.28;;;24.56;57.28
42111;BME280;27766;52.174;5.456;2023-06-10T07:42:24;101569.22;;;24.70;58.53
42111;BME280;27766;52.174;5.456;2023-06-10T07:44:51;101560.13;;;24.79;58.09
42111;BME280;27766;52.174;5.456;2023-06-10T07:47:18;101560.75;;;24.87;58.30
42111;BME280;27766;52.174;5.456;2023-06-10T07:49:45;101569.44;;;24.92;57.46
42111;BME280;27766;52.174;5.456;2023-06-10T07:52:12;101556.28;;;24.89;57.24
42111;BME280;27766;52.174;5.456;2023-06-10T07:54:43;101573.53;;;25.03;58.48
42111;BME280;27766;52.174;5.456;2023-06-10T07:57:11;101566.97;;;25.15;56.96
42111;BME280;27766;52.174;5.456;2023-06-10T07:59:38;101564.94;;;25.24;54.94
42111;BME280;27766;52.174;5.456;2023-06-10T08:02:06;101566.63;;;25.25;54.86
42111;BME280;27766;52.174;5.456;2023-06-10T08:04:33;101563.75;;;25.33;55.26
42111;BME280;27766;52.174;5.456;2023-06-10T08:07:02;101570.47;;;25.45;53.78
42111;BME280;27766;52.174;5.456;2023-06-10T08:09:30;101564.88;;;25.54;53.29
42111;BME280;27766;52.174;5.456;2023-06-10T08:11:57;101557.09;;;25.48;54.74
42111;BME280;27766;52.174;5.456;2023-06-10T08:14:24;101564.72;;;25.59;55.03
42111;BME280;27766;52.174;5.456;2023-06-10T08:16:51;101569.75;;;25.67;52.57
42111;BME280;27766;52.174;5.456;2023-06-10T08:19:18;101560.56;;;25.77;52.89
42111;BME280;27766;52.174;5.456;2023-06-10T08:21:45;101563.75;;;25.87;53.35
42111;BME280;27766;52.174;5.456;2023-06-10T08:24:15;101561.78;;;25.94;52.42
42111;BME280;27766;52.174;5.456;2023-06-10T08:26:45;101570.28;;;26.02;51.82
42111;BME280;27766;52.174;5.456;2023-06-10T08:29:13;101562.00;;;26.13;51.13
42111;BME280;27766;52.174;5.456;2023-06-10T08:31:44;101565.13;;;26.24;49.93
42111;BME280;27766;52.174;5.456;2023-06-10T08:34:11;101566.78;;;26.27;49.81
42111;BME280;27766;52.174;5.456;2023-06-10T08:36:39;101562.31;;;26.29;48.59
42111;BME280;27766;52.174;5.456;2023-06-10T08:39:07;101572.34;;;26.44;48.45
42111;BME280;27766;52.174;5.456;2023-06-10T08:41:43;101564.31;;;26.46;47.26
42111;BME280;27766;52.174;5.456;2023-06-10T08:44:22;101566.47;;;26.60;48.69
42111;BME280;27766;52.174;5.456;2023-06-10T08:46:55;101570.69;;;26.65;48.06
42111;BME280;27766;52.174;5.456;2023-06-10T08:49:26;101565.78;;;26.78;48.88
42111;BME280;27766;52.174;5.456;2023-06-10T08:51:58;101564.69;;;26.84;45.39
42111;BME280;27766;52.174;5.456;2023-06-10T08:54:33;101569.69;;;26.92;45.81
42111;BME280;27766;52.174;5.456;2023-06-10T08:57:05;101553.81;;;26.90;45.64
42111;BME280;27766;52.174;5.456;2023-06-10T08:59:36;101569.09;;;27.07;45.53
42111;BME280;27766;52.174;5.456;2023-06-10T09:02:04;101568.03;;;27.11;46.41
42111;BME280;27766;52.174;5.456;2023-06-10T09:04:34;101562.44;;;27.19;46.67
42111;BME280;27766;52.174;5.456;2023-06-10T09:07:03;101566.66;;;27.23;44.59
42111;BME280;27766;52.174;5.456;2023-06-10T09:09:32;101560.91;;;27.34;43.08
42111;BME280;27766;52.174;5.456;2023-06-10T09:12:01;101566.81;;;27.42;43.98
42111;BME280;27766;52.174;5.456;2023-06-10T09:14:29;101569.22;;;27.48;44.24
42111;BME280;27766;52.174;5.456;2023-06-10T09:16:56;101565.44;;;27.54;45.31
42111;BME280;27766;52.174;5.456;2023-06-10T09:19:25;101562.31;;;27.65;44.65
42111;BME280;27766;52.174;5.456;2023-06-10T09:21:54;101569.09;;;27.72;43.44
42111;BME280;27766;52.174;5.456;2023-06-10T09:24:24;101552.16;;;27.75;43.27
42111;BME280;27766;52.174;5.456;2023-06-10T09:27:03;101562.47;;;27.83;41.22
42111;BME280;27766;52.174;5.456;2023-06-10T09:29:30;101563.38;;;28.02;41.61
42111;BME280;27766;52.174;5.456;2023-06-10T09:31:58;101559.94;;;28.21;42.54
42111;BME280;27766;52.174;5.456;2023-06-10T09:34:25;101566.28;;;28.37;39.26
42111;BME280;27766;52.174;5.456;2023-06-10T09:36:53;101562.75;;;28.37;39.51
42111;BME280;27766;52.174;5.456;2023-06-10T09:39:20;101558.75;;;28.47;40.29
42111;BME280;27766;52.174;5.456;2023-06-10T09:41:48;101564.06;;;28.66;40.11
42111;BME280;27766;52.174;5.456;2023-06-10T09:44:18;101563.13;;;28.67;38.75
42111;BME280;27766;52.174;5.456;2023-06-10T09:46:48;101565.38;;;28.57;38.60
42111;BME280;27766;52.174;5.456;2023-06-10T09:49:16;101568.88;;;28.58;38.68
42111;BME280;27766;52.174;5.456;2023-06-10T09:51:51;101558.75;;;28.66;39.46
42111;BME280;27766;52.174;5.456;2023-06-10T09:54:19;101561.00;;;28.76;38.43
42111;BME280;27766;52.174;5.456;2023-06-10T09:56:48;101552.72;;;28.82;37.54
42111;BME280;27766;52.174;5.456;2023-06-10T09:59:15;101556.81;;;28.89;37.09
42111;BME280;27766;52.174;5.456;2023-06-10T10:01:42;101550.38;;;28.93;38.14
42111;BME280;27766;52.174;5.456;2023-06-10T10:04:10;101559.06;;;29.16;37.78
42111;BME280;27766;52.174;5.456;2023-06-10T10:06:41;101555.38;;;29.37;37.73
42111;BME280;27766;52.174;5.456;2023-06-10T10:09:09;101556.00;;;29.43;37.68
42111;BME280;27766;52.174;5.456;2023-06-10T10:11:36;101545.66;;;29.36;36.22
42111;BME280;27766;52.174;5.456;2023-06-10T10:14:04;101551.53;;;29.43;36.24
42111;BME280;27766;52.174;5.456;2023-06-10T10:16:36;101546.38;;;29.40;35.45
42111;BME280;27766;52.174;5.456;2023-06-10T10:19:12;101542.53;;;29.46;35.66
42111;BME280;27766;52.174;5.456;2023-06-10T10:21:47;101546.81;;;29.66;36.50
42111;BME280;27766;52.174;5.456;2023-06-10T10:24:21;101538.59;;;29.71;33.68
42111;BME280;27766;52.174;5.456;2023-06-10T10:26:50;101540.69;;;29.81;32.04
42111;BME280;27766;52.174;5.456;2023-06-10T10:29:29;101531.31;;;29.92;31.64
42111;BME280;27766;52.174;5.456;2023-06-10T10:31:59;101535.81;;;30.07;32.43
42111;BME280;27766;52.174;5.456;2023-06-10T10:35:02;101545.47;;;30.10;32.23
42111;BME280;27766;52.174;5.456;2023-06-10T10:37:24;101534.44;;;30.16;33.28
42111;BME280;27766;52.174;5.456;2023-06-10T10:39:51;101526.38;;;30.18;31.26
42111;BME280;27766;52.174;5.456;2023-06-10T10:42:19;101527.47;;;30.13;30.51
42111;BME280;27766;52.174;5.456;2023-06-10T10:44:47;101534.28;;;30.19;30.58
42111;BME280;27766;52.174;5.456;2023-06-10T10:47:15;101523.78;;;30.16;29.70
42111;BME280;27766;52.174;5.456;2023-06-10T10:49:43;101532.56;;;30.52;31.19
42111;BME280;27766;52.174;5.456;2023-06-10T10:52:12;101527.81;;;30.73;29.90
42111;BME280;27766;52.174;5.456;2023-06-10T10:54:43;101519.56;;;30.77;28.81
42111;BME280;27766;52.174;5.456;2023-06-10T10:57:20;101527.06;;;30.55;27.53
42111;BME280;27766;52.174;5.456;2023-06-10T10:59:59;101518.16;;;30.54;28.66
42111;BME280;27766;52.174;5.456;2023-06-10T11:02:37;101522.13;;;30.79;29.36
42111;BME280;27766;52.174;5.456;2023-06-10T11:05:07;101517.47;;;30.99;28.86
42111;BME280;27766;52.174;5.456;2023-06-10T11:07:35;101515.03;;;31.10;28.00
42111;BME280;27766;52.174;5.456;2023-06-10T11:10:12;101520.53;;;31.23;27.64
42111;BME280;27766;52.174;5.456;2023-06-10T11:15:13;101523.72;;;31.30;28.87
42111;BME280;27766;52.174;5.456;2023-06-10T11:18:09;101515.09;;;31.24;28.85
42111;BME280;27766;52.174;5.456;2023-06-10T11:26:15;101511.84;;;31.19;28.43
42111;BME280;27766;52.174;5.456;2023-06-10T11:31:20;101500.78;;;31.25;28.79
42111;BME280;27766;52.174;5.456;2023-06-10T11:33:52;101501.44;;;31.60;28.22
42111;BME280;27766;52.174;5.456;2023-06-10T11:36:20;101508.66;;;32.02;27.73
42111;BME280;27766;52.174;5.456;2023-06-10T11:38:48;101505.22;;;32.29;27.79
42111;BME280;27766;52.174;5.456;2023-06-10T11:41:15;101505.16;;;32.58;26.86
42111;BME280;27766;52.174;5.456;2023-06-10T11:43:48;101506.75;;;32.61;26.63
42111;BME280;27766;52.174;5.456;2023-06-10T11:46:15;101492.13;;;32.66;26.03
42111;BME280;27766;52.174;5.456;2023-06-10T11:48:51;101497.75;;;33.04;26.38
42111;BME280;27766;52.174;5.456;2023-06-10T11:51:18;101499.84;;;33.26;26.27
42111;BME280;27766;52.174;5.456;2023-06-10T11:53:48;101494.53;;;33.77;25.41
42111;BME280;27766;52.174;5.456;2023-06-10T11:56:25;101498.09;;;33.91;25.48
42111;BME280;27766;52.174;5.456;2023-06-10T11:58:54;101488.28;;;34.16;25.80
42111;BME280;27766;52.174;5.456;2023-06-10T12:01:23;101484.13;;;34.49;25.83
42111;BME280;27766;52.174;5.456;2023-06-10T12:06:43;101485.34;;;34.69;24.97
42111;BME280;27766;52.174;5.456;2023-06-10T12:09:30;101481.56;;;34.47;24.62
42111;BME280;27766;52.174;5.456;2023-06-10T12:12:01;101484.13;;;34.49;24.78
42111;BME280;27766;52.174;5.456;2023-06-10T12:14:55;101484.47;;;34.68;24.98
42111;BME280;27766;52.174;5.456;2023-06-10T12:20:03;101474.13;;;34.99;24.51
42111;BME280;27766;52.174;5.456;2023-06-10T12:22:39;101476.25;;;35.18;23.98
42111;BME280;27766;52.174;5.456;2023-06-10T12:25:10;101460.38;;;35.27;23.72
42111;BME280;27766;52.174;5.456;2023-06-10T12:27:50;101455.34;;;35.46;24.49
42111;BME280;27766;52.174;5.456;2023-06-10T12:30:26;101456.91;;;35.83;23.10
42111;BME280;27766;52.174;5.456;2023-06-10T12:32:53;101460.09;;;35.77;22.50
42111;BME280;27766;52.174;5.456;2023-06-10T12:35:26;101458.13;;;35.68;24.08
42111;BME280;27766;52.174;5.456;2023-06-10T12:37:59;101457.31;;;35.56;22.69
42111;BME280;27766;52.174;5.456;2023-06-10T12:40:39;101456.91;;;35.60;22.87
42111;BME280;27766;52.174;5.456;2023-06-10T12:43:10;101453.25;;;35.73;23.19
42111;BME280;27766;52.174;5.456;2023-06-10T12:45:41;101453.16;;;35.86;23.16
42111;BME280;27766;52.174;5.456;2023-06-10T12:48:21;101460.69;;;36.37;22.41
42111;BME280;27766;52.174;5.456;2023-06-10T12:50:52;101454.97;;;36.08;22.50
42111;BME280;27766;52.174;5.456;2023-06-10T12:53:20;101456.78;;;36.30;23.33
42111;BME280;27766;52.174;5.456;2023-06-10T12:55:48;101445.66;;;36.67;23.33
42111;BME280;27766;52.174;5.456;2023-06-10T12:58:15;58170.38;;;-148.40;100.00
42111;BME280;27766;52.174;5.456;2023-06-10T13:00:42;58170.38;;;-148.40;100.00
42111;BME280;27766;52.174;5.456;2023-06-10T13:03:11;58170.38;;;-148.40;100.00
42111;BME280;27766;52.174;5.456;2023-06-10T13:05:41;58170.38;;;-148.40;100.00
42111;BME280;27766;52.174;5.456;2023-06-10T13:08:09;101463.66;;;36.11;nan
42111;BME280;27766;52.174;5.456;2023-06-10T13:10:39;101455.47;;;36.13;nan
42111;BME280;27766;52.174;5.456;2023-06-10T13:13:07;101457.75;;;36.29;nan
42111;BME280;27766;52.174;5.456;2023-06-10T13:15:37;101455.41;;;36.36;nan
42111;BME280;27766;52.174;5.456;2023-06-10T13:18:09;101454.19;;;36.51;nan
42111;BME280;27766;52.174;5.456;2023-06-10T13:20:37;101453.00;;;35.99;nan